Time;durP1;ratioP1;P1;durP2;ratioP2;P2;SDS_P1;SDS_P2;PMS_P1;PMS_P2;Temp;Humidity;BMP_temperature;BMP_pressure;BME280_temperature;BME280_humidity;BME280_pressure;Samples;Min_cycle;Max_cycle;Signal;HPM_P1;HPM_P2
2021/08/05 00:02:26;;;;;;;6.60;3.05;;;15.70;99.90;;;;;;10523088;28;20044;-66
2021/08/05 00:07:28;;;;;;;4.32;3.22;;;15.70;99.90;;;;;;10527325;28;20043;-66
2021/08/05 00:12:30;;;;;;;6.43;3.53;;;15.70;99.90;;;;;;10530805;28;20112;-66
2021/08/05 00:17:31;;;;;;;4.50;4.03;;;15.70;99.90;;;;;;10522327;28;20052;-66
2021/08/05 00:22:33;;;;;;;4.88;3.25;;;15.70;99.90;;;;;;10517414;28;20110;-66
2021/08/05 00:27:35;;;;;;;5.15;3.42;;;15.70;99.90;;;;;;10516227;28;20091;-66
2021/08/05 00:32:36;;;;;;;4.07;3.50;;;15.70;99.90;;;;;;10524041;28;20044;-66
2021/08/05 00:37:38;;;;;;;6.68;3.35;;;15.70;99.90;;;;;;10526812;28;20049;-66
2021/08/05 00:42:40;;;;;;;4.28;3.08;;;15.80;99.90;;;;;;10523468;28;20075;-66
2021/08/05 00:47:41;;;;;;;10.00;3.53;;;15.80;99.90;;;;;;10530445;28;20048;-66
2021/08/05 00:52:44;;;;;;;7.03;3.58;;;15.70;99.90;;;;;;10529210;28;20545;-66
2021/08/05 00:57:46;;;;;;;6.70;3.88;;;15.60;99.90;;;;;;10523981;28;20472;-66
2021/08/05 01:02:51;;;;;;;5.03;3.15;;;15.50;99.90;;;;;;10523277;28;20039;-66
2021/08/05 01:07:59;;;;;;;5.53;3.20;;;15.50;99.90;;;;;;10522993;28;20044;-66
2021/08/05 01:13:23;;;;;;;8.38;3.88;;;15.50;99.90;;;;;;10524922;28;20435;-66
2021/08/05 01:18:32;;;;;;;7.07;3.13;;;15.50;99.90;;;;;;10525632;28;20104;-66
2021/08/05 01:23:44;;;;;;;6.03;3.63;;;15.50;99.90;;;;;;10525779;28;20093;-68
2021/08/05 01:28:47;;;;;;;4.28;3.40;;;15.50;99.90;;;;;;10523017;28;20402;-66
2021/08/05 01:33:51;;;;;;;6.47;3.40;;;15.40;99.90;;;;;;10525649;28;20048;-66
2021/08/05 01:38:54;;;;;;;7.28;3.80;;;15.40;99.90;;;;;;10531991;28;20056;-66
2021/08/05 01:43:57;;;;;;;4.13;3.47;;;15.40;99.90;;;;;;10525457;28;20097;-66
2021/08/05 01:48:59;;;;;;;5.32;3.55;;;15.50;99.90;;;;;;10518459;28;20056;-66
2021/08/05 01:54:01;;;;;;;5.65;3.05;;;15.50;99.90;;;;;;10514727;28;20048;-66
2021/08/05 01:59:03;;;;;;;6.05;3.22;;;15.50;99.90;;;;;;10509591;28;20076;-66
2021/08/05 02:04:12;;;;;;;3.72;3.13;;;15.50;99.90;;;;;;10518610;28;20486;-66
2021/08/05 02:09:20;;;;;;;6.78;4.00;;;15.50;99.90;;;;;;10490506;28;20052;-66
2021/08/05 02:14:24;;;;;;;4.15;3.38;;;15.50;99.90;;;;;;10511175;28;20052;-66
2021/08/05 02:19:25;;;;;;;5.18;3.60;;;15.40;99.90;;;;;;10524008;28;20162;-66
2021/08/05 02:24:30;;;;;;;12.90;3.72;;;15.40;99.90;;;;;;10525071;28;20055;-66
2021/08/05 02:29:33;;;;;;;9.88;3.95;;;15.30;99.90;;;;;;10516014;28;20111;-66
2021/08/05 02:34:36;;;;;;;8.73;4.00;;;15.30;99.90;;;;;;10518228;28;20105;-66
2021/08/05 02:39:38;;;;;;;7.68;3.72;;;15.30;99.90;;;;;;10526308;28;20626;-66
2021/08/05 02:44:40;;;;;;;6.68;4.35;;;15.30;99.90;;;;;;10522303;28;20056;-66
2021/08/05 02:49:42;;;;;;;10.10;4.45;;;15.20;99.90;;;;;;10513516;28;20052;-66
2021/08/05 02:54:45;;;;;;;4.50;3.22;;;15.20;99.90;;;;;;10521499;28;20052;-66
2021/08/05 02:59:49;;;;;;;12.88;4.53;;;15.10;99.90;;;;;;10523091;28;20059;-66
2021/08/05 03:04:50;;;;;;;5.75;3.45;;;15.00;99.90;;;;;;10517802;28;20040;-66
2021/08/05 03:09:52;;;;;;;9.18;4.07;;;15.00;99.90;;;;;;10532923;28;20043;-66
2021/08/05 03:14:54;;;;;;;5.10;4.28;;;15.00;99.90;;;;;;10531500;28;20044;-66
2021/08/05 03:19:56;;;;;;;8.82;4.15;;;14.90;99.90;;;;;;10530593;28;20047;-66
2021/08/05 03:24:58;;;;;;;8.77;4.63;;;14.80;99.90;;;;;;10533712;28;20124;-66
2021/08/05 03:30:00;;;;;;;8.38;4.95;;;14.80;99.90;;;;;;10526157;28;20462;-66
2021/08/05 03:35:02;;;;;;;7.10;4.72;;;14.70;99.90;;;;;;10532966;28;20551;-66
2021/08/05 03:40:04;;;;;;;7.13;4.35;;;14.70;99.90;;;;;;10522949;28;20180;-66
2021/08/05 03:45:06;;;;;;;6.53;4.80;;;14.60;99.90;;;;;;10531333;28;21362;-66
2021/08/05 03:50:09;;;;;;;8.68;4.85;;;14.50;99.90;;;;;;10529885;28;20101;-66
2021/08/05 03:55:15;;;;;;;7.47;5.43;;;14.40;99.90;;;;;;10528259;28;20055;-66
2021/08/05 04:00:18;;;;;;;8.90;5.22;;;14.40;99.90;;;;;;10526292;28;20063;-65
2021/08/05 04:05:20;;;;;;;15.23;5.57;;;14.40;99.90;;;;;;10519349;28;20060;-65
2021/08/05 04:10:21;;;;;;;20.98;5.60;;;14.40;99.90;;;;;;10529555;28;20048;-64
2021/08/05 04:15:23;;;;;;;11.80;5.70;;;14.40;99.90;;;;;;10527594;28;20062;-65
2021/08/05 04:20:25;;;;;;;10.75;5.63;;;14.40;99.90;;;;;;10522548;28;20110;-65
2021/08/05 04:25:26;;;;;;;12.02;5.90;;;14.40;99.90;;;;;;10525487;28;20075;-65
2021/08/05 04:30:28;;;;;;;11.10;4.95;;;14.40;99.90;;;;;;10523237;28;20044;-65
2021/08/05 04:35:30;;;;;;;10.60;3.95;;;14.40;99.90;;;;;;10520254;28;20048;-65
2021/08/05 04:40:31;;;;;;;10.38;4.68;;;14.50;99.90;;;;;;10521419;28;20108;-65
2021/08/05 04:45:33;;;;;;;10.00;5.57;;;14.50;99.90;;;;;;10524230;28;20068;-65
2021/08/05 04:50:43;;;;;;;12.48;6.00;;;14.50;99.90;;;;;;10523939;28;20083;-65
2021/08/05 04:55:45;;;;;;;12.75;6.78;;;14.50;99.90;;;;;;10534555;28;20115;-65
2021/08/05 05:00:47;;;;;;;14.68;7.13;;;14.60;99.90;;;;;;10515270;28;20043;-65
2021/08/05 05:05:49;;;;;;;8.60;6.50;;;14.70;99.90;;;;;;10526487;28;20058;-65
2021/08/05 05:10:53;;;;;;;17.40;7.68;;;14.90;99.90;;;;;;10524204;28;20100;-65
2021/08/05 05:15:54;;;;;;;13.82;8.07;;;14.90;99.90;;;;;;10523708;28;20109;-65
2021/08/05 05:20:56;;;;;;;21.58;10.25;;;15.00;99.90;;;;;;10520033;28;20104;-65
2021/08/05 05:25:58;;;;;;;26.17;10.43;;;15.20;99.90;;;;;;10520829;28;20094;-65
2021/08/05 05:31:00;;;;;;;26.42;11.32;;;15.20;99.90;;;;;;10523981;28;20097;-65
2021/08/05 05:36:03;;;;;;;27.40;11.48;;;15.30;99.90;;;;;;10528719;28;20088;-65
2021/08/05 05:41:06;;;;;;;20.05;10.05;;;15.50;99.90;;;;;;10531279;28;20056;-65
2021/08/05 05:46:08;;;;;;;21.98;11.13;;;15.50;99.90;;;;;;10525835;28;20043;-65
2021/08/05 05:51:09;;;;;;;26.13;12.50;;;15.50;99.90;;;;;;10530972;28;20055;-65
2021/08/05 05:56:12;;;;;;;18.25;11.05;;;15.60;99.90;;;;;;10527699;28;20417;-65
2021/08/05 06:01:14;;;;;;;18.92;10.98;;;15.70;99.90;;;;;;10519996;28;20500;-65
2021/08/05 06:06:16;;;;;;;18.67;10.90;;;15.80;99.90;;;;;;10525852;28;20491;-65
2021/08/05 06:11:18;;;;;;;19.67;11.70;;;15.90;99.90;;;;;;10498872;28;20044;-65
2021/08/05 06:16:20;;;;;;;21.15;11.43;;;15.90;99.90;;;;;;10518331;28;20043;-65
2021/08/05 06:21:22;;;;;;;17.20;10.57;;;15.90;99.90;;;;;;10520354;28;20122;-65
2021/08/05 06:26:25;;;;;;;20.65;9.90;;;16.00;99.90;;;;;;10528703;28;20108;-65
2021/08/05 06:31:27;;;;;;;15.90;9.18;;;16.10;99.90;;;;;;10529722;28;20097;-65
2021/08/05 06:36:28;;;;;;;15.20;9.60;;;16.50;99.90;;;;;;10524594;28;20517;-66
2021/08/05 06:41:32;;;;;;;18.35;10.38;;;16.60;99.90;;;;;;10532387;28;20478;-66
2021/08/05 06:46:36;;;;;;;17.00;10.48;;;16.80;99.90;;;;;;10506909;28;20039;-66
2021/08/05 06:51:38;;;;;;;13.50;7.95;;;16.90;99.90;;;;;;10533395;28;20064;-66
2021/08/05 06:56:39;;;;;;;13.50;9.15;;;17.30;99.90;;;;;;10510047;28;20669;-66
2021/08/05 07:01:41;;;;;;;11.98;8.00;;;17.40;99.90;;;;;;10524837;28;20044;-66
2021/08/05 07:06:43;;;;;;;15.88;7.95;;;17.60;99.90;;;;;;10526190;28;20051;-66
2021/08/05 07:11:45;;;;;;;12.50;6.65;;;17.70;99.90;;;;;;10535985;28;20122;-65
2021/08/05 07:16:46;;;;;;;12.88;6.95;;;17.80;99.90;;;;;;10525964;28;20101;-66
2021/08/05 07:21:49;;;;;;;11.65;7.70;;;18.00;99.90;;;;;;10530493;28;20488;-66
2021/08/05 07:26:50;;;;;;;15.77;7.75;;;17.90;99.90;;;;;;10529348;28;20060;-65
2021/08/05 07:31:52;;;;;;;12.68;7.60;;;17.70;99.90;;;;;;10535549;28;20071;-65
2021/08/05 07:36:54;;;;;;;11.68;8.07;;;18.00;99.90;;;;;;10524590;28;20071;-66
2021/08/05 07:41:56;;;;;;;13.95;7.10;;;18.10;99.90;;;;;;10522720;28;20043;-66
2021/08/05 07:46:57;;;;;;;8.27;5.22;;;18.30;99.90;;;;;;10530859;28;20036;-66
2021/08/05 07:51:59;;;;;;;7.00;4.80;;;18.60;99.90;;;;;;10527946;28;20377;-66
2021/08/05 07:57:01;;;;;;;6.30;4.60;;;18.80;99.90;;;;;;10524521;28;20055;-66
2021/08/05 08:02:03;;;;;;;8.05;4.85;;;18.80;99.90;;;;;;10530084;28;20104;-66
2021/08/05 08:07:05;;;;;;;10.63;4.50;;;18.70;99.90;;;;;;10521173;28;20067;-66
2021/08/05 08:12:06;;;;;;;6.88;3.92;;;18.80;99.90;;;;;;10533833;28;20052;-66
2021/08/05 08:17:08;;;;;;;6.57;3.17;;;19.10;99.90;;;;;;10534538;28;20064;-66
2021/08/05 08:22:10;;;;;;;4.50;2.85;;;19.30;99.90;;;;;;10532030;28;20040;-66
2021/08/05 08:27:11;;;;;;;3.60;2.10;;;19.20;99.90;;;;;;10529197;28;20053;-66
2021/08/05 08:32:13;;;;;;;2.75;1.77;;;19.40;99.90;;;;;;10524562;28;20084;-66
2021/08/05 08:37:15;;;;;;;2.85;2.33;;;19.70;99.90;;;;;;10528496;28;20083;-66
2021/08/05 08:42:17;;;;;;;2.92;2.30;;;20.10;99.90;;;;;;10528055;28;20075;-66
2021/08/05 08:47:21;;;;;;;5.95;3.15;;;20.30;99.90;;;;;;10527342;28;20048;-66
2021/08/05 08:52:26;;;;;;;3.97;2.53;;;20.50;99.90;;;;;;10526896;28;20056;-66
2021/08/05 08:57:34;;;;;;;4.95;2.33;;;20.70;99.90;;;;;;10530052;28;20360;-66
2021/08/05 09:02:36;;;;;;;2.00;1.80;;;20.90;99.90;;;;;;10530900;28;20081;-66
2021/08/05 09:07:39;;;;;;;1.80;1.42;;;21.10;99.90;;;;;;10522627;28;20044;-66
2021/08/05 09:12:44;;;;;;;1.90;1.70;;;21.20;99.90;;;;;;10522475;28;20044;-66
2021/08/05 09:17:46;;;;;;;3.25;1.25;;;20.80;99.90;;;;;;10531880;28;20055;-66
2021/08/05 09:22:48;;;;;;;2.30;1.40;;;21.50;99.90;;;;;;10529596;28;20048;-66
2021/08/05 09:27:52;;;;;;;4.68;1.83;;;21.40;99.90;;;;;;10515165;28;20056;-66
2021/08/05 09:32:54;;;;;;;1.60;1.35;;;21.70;99.90;;;;;;10521640;28;20068;-66
2021/08/05 09:38:25;;;;;;;2.70;1.50;;;21.90;99.90;;;;;;10519479;28;20120;-66
2021/08/05 09:43:28;;;;;;;6.80;3.00;;;21.60;99.90;;;;;;10473860;28;20052;-66
2021/08/05 09:48:44;;;;;;;1.90;1.13;;;21.80;99.90;;;;;;10508012;28;20113;-66
2021/08/05 09:54:03;;;;;;;2.22;0.68;;;21.80;99.90;;;;;;10523175;28;20074;-66
2021/08/05 09:59:08;;;;;;;2.33;0.90;;;22.30;99.90;;;;;;10476616;28;20515;-66
2021/08/05 10:04:24;;;;;;;1.55;0.88;;;22.50;99.90;;;;;;10515552;28;20044;-66
2021/08/05 10:09:27;;;;;;;1.52;0.90;;;22.20;99.10;;;;;;10526473;28;20093;-66
2021/08/05 10:14:28;;;;;;;1.55;0.82;;;22.00;99.60;;;;;;10492870;28;20090;-66
2021/08/05 10:19:37;;;;;;;2.22;0.95;;;22.30;97.90;;;;;;10525469;28;20055;-67
2021/08/05 10:24:50;;;;;;;1.33;0.98;;;22.20;96.20;;;;;;10500065;28;20419;-66
2021/08/05 10:29:53;;;;;;;1.13;0.82;;;22.40;99.90;;;;;;10526538;28;20096;-67
2021/08/05 10:34:55;;;;;;;2.55;0.95;;;22.60;96.30;;;;;;10512996;28;20054;-67
2021/08/05 10:39:57;;;;;;;3.38;0.77;;;22.20;97.60;;;;;;10526264;28;20048;-67
2021/08/05 10:44:59;;;;;;;1.50;0.75;;;22.50;98.60;;;;;;10525388;28;20415;-67
2021/08/05 10:50:03;;;;;;;3.40;0.80;;;23.30;94.20;;;;;;10509169;28;20448;-68
2021/08/05 10:55:17;;;;;;;1.00;0.77;;;24.30;94.00;;;;;;10524323;28;20040;-67
2021/08/05 11:00:19;;;;;;;2.45;0.80;;;24.00;96.50;;;;;;10523427;28;20056;-67
2021/08/05 11:05:24;;;;;;;0.75;0.70;;;25.50;92.40;;;;;;10520349;28;20100;-67
2021/08/05 11:10:26;;;;;;;1.55;0.90;;;25.20;92.20;;;;;;10526041;28;20133;-67
2021/08/05 11:15:32;;;;;;;1.75;0.93;;;24.90;92.10;;;;;;10523719;28;20044;-67
2021/08/05 11:20:35;;;;;;;4.65;1.10;;;23.90;92.40;;;;;;10530162;28;20048;-67
2021/08/05 11:25:52;;;;;;;2.22;0.95;;;24.40;92.70;;;;;;10523920;28;20083;-67
2021/08/05 11:30:58;;;;;;;2.08;0.70;;;24.20;90.90;;;;;;10526860;28;20050;-67
2021/08/05 11:36:20;;;;;;;4.43;1.58;;;24.00;90.30;;;;;;10530817;28;20052;-67
2021/08/05 11:41:43;;;;;;;1.30;0.90;;;23.70;90.80;;;;;;10526298;28;20048;-67
2021/08/05 11:46:47;;;;;;;1.45;1.08;;;24.30;86.20;;;;;;10527436;28;20047;-68
2021/08/05 11:51:50;;;;;;;2.03;0.95;;;24.90;84.30;;;;;;10532747;28;20060;-68
2021/08/05 11:57:00;;;;;;;3.08;0.90;;;25.20;85.50;;;;;;10523393;28;20090;-67
2021/08/05 12:02:03;;;;;;;6.13;1.08;;;25.70;81.60;;;;;;10528247;28;20063;-67
2021/08/05 12:07:34;;;;;;;2.60;1.02;;;25.10;80.60;;;;;;10527866;28;20067;-67
2021/08/05 12:12:40;;;;;;;1.38;1.05;;;25.30;83.50;;;;;;10470384;28;20048;-67
2021/08/05 12:17:45;;;;;;;1.25;0.90;;;24.80;81.00;;;;;;10520197;28;20218;-67
2021/08/05 12:22:50;;;;;;;1.97;0.70;;;24.40;80.80;;;;;;10527619;28;20097;-67
2021/08/05 12:27:53;;;;;;;1.67;0.80;;;25.30;79.70;;;;;;10520896;28;20044;-67
2021/08/05 12:32:59;;;;;;;2.03;0.90;;;25.90;78.10;;;;;;10529532;28;20048;-68
2021/08/05 12:38:09;;;;;;;1.02;0.70;;;25.20;78.40;;;;;;10522028;28;20052;-68
2021/08/05 12:43:12;;;;;;;2.58;0.82;;;25.40;79.00;;;;;;10506649;28;20067;-68
2021/08/05 12:48:15;;;;;;;1.35;0.75;;;26.10;78.70;;;;;;10494439;28;20051;-67
2021/08/05 12:53:29;;;;;;;1.98;0.88;;;25.50;78.40;;;;;;10519484;28;20056;-68
2021/08/05 12:58:32;;;;;;;1.58;0.98;;;25.20;82.20;;;;;;10476918;28;20044;-67
2021/08/05 13:03:38;;;;;;;1.45;1.35;;;26.00;78.60;;;;;;10503044;28;20460;-69
2021/08/05 13:08:43;;;;;;;2.95;1.30;;;26.10;74.50;;;;;;10529904;28;20048;-68
2021/08/05 13:13:53;;;;;;;3.85;1.00;;;26.20;75.80;;;;;;10535863;28;20055;-69
2021/08/05 13:19:00;;;;;;;2.45;1.00;;;24.80;78.10;;;;;;10529889;28;20506;-69
2021/08/05 13:24:19;;;;;;;1.80;1.20;;;25.10;79.00;;;;;;10531010;28;20051;-69
2021/08/05 13:29:47;;;;;;;1.83;0.70;;;25.60;79.50;;;;;;10526948;28;20048;-69
2021/08/05 13:35:06;;;;;;;2.83;0.70;;;24.70;76.90;;;;;;10521920;28;20108;-68
2021/08/05 13:40:20;;;;;;;3.63;0.65;;;24.30;79.10;;;;;;10518458;28;20128;-69
2021/08/05 13:45:22;;;;;;;1.48;0.63;;;23.90;81.70;;;;;;10519047;28;20071;-68
2021/08/05 13:50:27;;;;;;;1.85;0.70;;;23.60;84.40;;;;;;10530143;28;20045;-68
2021/08/05 13:55:30;;;;;;;1.58;0.98;;;22.90;90.40;;;;;;10526348;28;20148;-67
2021/08/05 14:00:32;;;;;;;1.80;1.10;;;21.60;96.80;;;;;;10529127;28;20056;-66
2021/08/05 14:05:34;;;;;;;7.22;1.15;;;20.30;99.90;;;;;;10528457;28;20123;-66
2021/08/05 14:10:36;;;;;;;3.40;0.95;;;19.80;99.90;;;;;;10519612;28;20419;-67
2021/08/05 14:15:38;;;;;;;2.17;1.00;;;19.80;99.90;;;;;;10521503;28;20059;-66
2021/08/05 14:20:42;;;;;;;2.50;1.13;;;20.10;99.90;;;;;;10516967;28;20059;-66
2021/08/05 14:25:44;;;;;;;2.22;0.80;;;20.50;99.90;;;;;;10516020;28;20119;-67
2021/08/05 14:30:46;;;;;;;3.38;0.70;;;21.40;99.90;;;;;;10523658;28;20105;-68
2021/08/05 14:35:48;;;;;;;0.80;0.50;;;22.40;99.90;;;;;;10501719;28;20046;-68
2021/08/05 14:40:49;;;;;;;1.60;0.85;;;23.20;99.90;;;;;;10524400;28;20452;-68
2021/08/05 14:45:51;;;;;;;1.83;0.70;;;23.80;99.50;;;;;;10504557;28;20125;-68
2021/08/05 14:50:53;;;;;;;1.30;0.60;;;24.20;97.30;;;;;;10518150;28;20059;-69
2021/08/05 14:55:54;;;;;;;1.20;0.70;;;25.20;96.10;;;;;;10522724;28;20101;-69
2021/08/05 15:00:56;;;;;;;1.05;0.57;;;24.60;93.20;;;;;;10518111;28;20048;-69
2021/08/05 15:06:03;;;;;;;1.20;0.98;;;24.00;92.90;;;;;;10521286;28;20061;-69
2021/08/05 15:11:05;;;;;;;2.72;0.60;;;23.50;94.30;;;;;;10538373;28;20043;-68
2021/08/05 15:16:07;;;;;;;0.90;0.50;;;23.40;94.50;;;;;;10493598;28;20044;-69
2021/08/05 15:21:09;;;;;;;2.88;0.70;;;23.00;94.50;;;;;;10526927;28;20043;-69
2021/08/05 15:26:12;;;;;;;2.65;0.60;;;22.90;95.90;;;;;;10508747;28;20071;-69
2021/08/05 15:31:15;;;;;;;0.80;0.50;;;23.10;96.30;;;;;;10509303;28;20056;-69
2021/08/05 15:36:16;;;;;;;1.20;0.60;;;23.40;96.20;;;;;;10523097;28;20075;-69
2021/08/05 15:41:18;;;;;;;0.90;0.70;;;23.50;96.50;;;;;;10534662;28;20060;-69
2021/08/05 15:46:22;;;;;;;0.80;0.47;;;23.60;96.20;;;;;;10528144;28;20136;-69
2021/08/05 15:51:25;;;;;;;0.70;0.50;;;23.60;95.40;;;;;;10527192;28;20079;-69
2021/08/05 15:56:28;;;;;;;0.70;0.43;;;23.50;94.80;;;;;;10526069;28;20055;-63
2021/08/05 16:01:30;;;;;;;0.82;0.50;;;23.50;95.20;;;;;;10531561;28;20043;-63
2021/08/05 16:06:37;;;;;;;1.25;0.40;;;23.60;95.10;;;;;;10526612;28;20135;-63
2021/08/05 16:11:39;;;;;;;2.00;0.40;;;24.10;94.60;;;;;;10528827;28;20559;-63
2021/08/05 16:16:45;;;;;;;1.60;0.52;;;24.30;94.90;;;;;;10528158;28;20098;-63
2021/08/05 16:21:47;;;;;;;1.02;0.50;;;24.20;93.30;;;;;;10528056;28;20055;-62
2021/08/05 16:26:51;;;;;;;1.75;0.57;;;24.20;94.10;;;;;;10531288;28;20406;-62
2021/08/05 16:31:53;;;;;;;0.95;0.47;;;24.10;93.30;;;;;;10531838;28;20048;-62
2021/08/05 16:36:55;;;;;;;0.90;0.70;;;24.00;94.00;;;;;;10524363;28;20105;-62
2021/08/05 16:41:56;;;;;;;2.45;0.52;;;24.20;93.70;;;;;;10522086;28;20100;-62
2021/08/05 16:46:58;;;;;;;1.88;1.20;;;24.20;93.00;;;;;;10521465;28;20463;-68
2021/08/05 16:52:00;;;;;;;1.92;0.57;;;24.20;92.70;;;;;;10530260;28;20160;-68
2021/08/05 16:57:02;;;;;;;1.38;0.60;;;24.00;93.10;;;;;;10507320;28;20601;-68
2021/08/05 17:02:04;;;;;;;1.95;0.95;;;23.70;93.40;;;;;;10526194;28;20051;-68
2021/08/05 17:07:06;;;;;;;2.70;0.60;;;24.00;93.30;;;;;;10532459;28;20079;-68
2021/08/05 17:12:08;;;;;;;1.70;0.85;;;24.00;93.50;;;;;;10519932;28;20037;-68
2021/08/05 17:17:10;;;;;;;1.15;0.70;;;23.70;93.80;;;;;;10521508;28;20056;-68
2021/08/05 17:22:12;;;;;;;0.88;0.60;;;23.50;94.50;;;;;;10522095;28;20156;-68
2021/08/05 17:27:13;;;;;;;3.85;0.90;;;23.40;94.90;;;;;;10529570;28;20450;-68
2021/08/05 17:32:16;;;;;;;1.73;0.85;;;23.20;95.20;;;;;;10523982;28;20083;-68
2021/08/05 17:37:17;;;;;;;1.20;0.90;;;23.10;95.20;;;;;;10528125;28;20047;-68
2021/08/05 17:42:20;;;;;;;4.75;0.80;;;22.90;95.70;;;;;;10517562;28;20383;-68
2021/08/05 17:47:22;;;;;;;5.50;0.98;;;22.80;96.20;;;;;;10518785;28;20056;-68
2021/08/05 17:52:24;;;;;;;4.07;1.27;;;22.60;96.60;;;;;;10524544;28;20047;-68
2021/08/05 17:57:26;;;;;;;1.60;0.60;;;22.50;96.70;;;;;;10519081;28;20441;-67
2021/08/05 18:02:28;;;;;;;1.38;0.88;;;22.40;97.40;;;;;;10519439;28;20036;-68
2021/08/05 18:07:47;;;;;;;3.58;0.90;;;22.20;98.90;;;;;;10525317;28;20048;-68
2021/08/05 18:12:49;;;;;;;3.20;1.02;;;22.00;99.90;;;;;;10527832;28;20048;-67
2021/08/05 18:17:51;;;;;;;2.03;1.50;;;21.80;99.90;;;;;;10526905;28;20043;-66
2021/08/05 18:22:52;;;;;;;4.63;1.90;;;21.40;99.90;;;;;;10522551;28;20105;-66
2021/08/05 18:27:54;;;;;;;16.08;4.60;;;21.00;99.90;;;;;;10520637;28;20040;-64
2021/08/05 18:32:56;;;;;;;5.25;3.28;;;20.40;99.90;;;;;;10525349;28;20047;-65
2021/08/05 18:37:59;;;;;;;7.10;2.70;;;20.00;99.90;;;;;;10524276;28;20103;-65
2021/08/05 18:43:01;;;;;;;5.38;2.80;;;19.80;99.90;;;;;;10524796;28;20161;-65
2021/08/05 18:48:05;;;;;;;5.53;3.65;;;19.30;99.90;;;;;;10520180;28;20071;-65
2021/08/05 18:53:07;;;;;;;6.85;4.22;;;19.20;99.90;;;;;;10523878;28;20149;-65
2021/08/05 18:58:09;;;;;;;13.23;6.07;;;18.70;99.90;;;;;;10524190;28;20056;-63
2021/08/05 19:03:11;;;;;;;16.73;6.60;;;18.20;99.90;;;;;;10526182;28;20051;-63
2021/08/05 19:08:13;;;;;;;15.38;6.78;;;18.00;99.90;;;;;;10524699;28;20383;-61
2021/08/05 19:13:15;;;;;;;7.85;4.18;;;17.60;99.90;;;;;;10515955;28;20152;-61
2021/08/05 19:18:16;;;;;;;11.82;4.70;;;17.50;99.90;;;;;;10513516;28;20109;-62
2021/08/05 19:23:18;;;;;;;14.38;5.43;;;17.50;99.90;;;;;;10517310;28;20060;-62
2021/08/05 19:28:20;;;;;;;6.38;3.70;;;17.40;99.90;;;;;;10523980;28;20051;-62
2021/08/05 19:33:21;;;;;;;4.18;1.85;;;17.40;99.90;;;;;;10518608;28;20040;-61
2021/08/05 19:38:23;;;;;;;5.07;2.67;;;17.10;99.90;;;;;;10519413;28;20040;-61
2021/08/05 19:43:25;;;;;;;3.22;2.17;;;16.90;99.90;;;;;;10525879;28;20136;-61
2021/08/05 19:48:28;;;;;;;9.25;3.60;;;17.00;99.90;;;;;;10516583;28;20060;-61
2021/08/05 19:53:30;;;;;;;6.28;3.95;;;17.00;99.90;;;;;;10529612;28;20040;-61
2021/08/05 19:58:32;;;;;;;8.00;3.50;;;17.10;99.90;;;;;;10527164;28;20094;-61
2021/08/05 20:03:34;;;;;;;9.70;4.45;;;17.30;99.90;;;;;;10529493;28;20129;-62
2021/08/05 20:08:36;;;;;;;7.90;4.05;;;17.30;99.90;;;;;;10524339;28;20048;-62
2021/08/05 20:13:39;;;;;;;10.10;5.22;;;17.40;99.90;;;;;;10524468;28;20095;-62
2021/08/05 20:18:41;;;;;;;14.50;5.07;;;17.40;99.90;;;;;;10525718;28;20076;-62
2021/08/05 20:23:44;;;;;;;10.05;4.50;;;17.40;99.90;;;;;;10528730;28;20041;-62
2021/08/05 20:28:46;;;;;;;10.48;5.32;;;17.50;99.90;;;;;;10526037;28;20066;-62
2021/08/05 20:33:48;;;;;;;13.73;5.75;;;17.30;99.90;;;;;;10531955;28;20044;-62
2021/08/05 20:38:52;;;;;;;15.68;5.78;;;17.20;99.90;;;;;;10529520;28;20051;-63
2021/08/05 20:43:53;;;;;;;13.63;6.35;;;17.30;99.90;;;;;;10529350;28;20055;-62
2021/08/05 20:48:55;;;;;;;18.02;6.55;;;17.20;99.90;;;;;;10535939;28;20040;-61
2021/08/05 20:53:57;;;;;;;10.13;6.15;;;17.30;99.90;;;;;;10529405;28;26467;-63
2021/08/05 20:58:58;;;;;;;14.07;6.07;;;17.30;99.90;;;;;;10527002;28;20491;-61
2021/08/05 21:04:00;;;;;;;14.32;6.78;;;17.20;99.90;;;;;;10522282;28;20097;-62
2021/08/05 21:09:02;;;;;;;15.48;5.53;;;17.30;99.90;;;;;;10518658;28;20044;-63
2021/08/05 21:14:04;;;;;;;11.55;3.65;;;17.30;99.90;;;;;;10533149;28;20044;-63
2021/08/05 21:19:06;;;;;;;10.70;4.32;;;17.30;99.90;;;;;;10529153;28;20122;-63
2021/08/05 21:24:08;;;;;;;13.02;5.07;;;17.00;99.90;;;;;;10525048;28;20211;-63
2021/08/05 21:29:10;;;;;;;13.90;4.95;;;17.10;99.90;;;;;;10528877;28;20108;-63
2021/08/05 21:34:11;;;;;;;12.38;5.63;;;17.20;99.90;;;;;;10526193;28;20056;-63
2021/08/05 21:39:13;;;;;;;15.10;5.45;;;17.10;99.90;;;;;;10523565;28;20052;-63
2021/08/05 21:44:15;;;;;;;13.45;5.40;;;17.20;99.90;;;;;;10520285;28;20108;-63
2021/08/05 21:49:16;;;;;;;11.43;4.93;;;17.00;99.90;;;;;;10521772;28;20039;-63
2021/08/05 21:54:19;;;;;;;8.75;4.78;;;17.00;99.90;;;;;;10524877;28;20044;-63
2021/08/05 21:59:24;;;;;;;5.78;2.60;;;17.00;99.90;;;;;;10519421;28;20047;-64
2021/08/05 22:04:26;;;;;;;12.45;4.60;;;16.80;99.90;;;;;;10526445;28;20048;-64
2021/08/05 22:09:28;;;;;;;10.93;4.32;;;16.90;99.90;;;;;;10521880;28;20044;-64
2021/08/05 22:14:29;;;;;;;4.90;3.58;;;17.00;99.90;;;;;;10514592;28;20085;-64
2021/08/05 22:19:32;;;;;;;5.70;3.70;;;17.00;99.90;;;;;;10517455;28;20080;-64
2021/08/05 22:24:34;;;;;;;10.30;3.92;;;17.00;99.90;;;;;;10519536;28;20060;-64
2021/08/05 22:29:35;;;;;;;9.30;4.35;;;16.90;99.90;;;;;;10515358;28;20044;-64
2021/08/05 22:34:37;;;;;;;8.73;4.47;;;17.00;99.90;;;;;;10515018;28;20068;-63
2021/08/05 22:39:39;;;;;;;9.48;4.18;;;17.00;99.90;;;;;;10516248;28;20067;-62
2021/08/05 22:44:41;;;;;;;8.82;4.75;;;17.00;99.90;;;;;;10525392;28;20404;-63
2021/08/05 22:49:43;;;;;;;9.25;4.25;;;17.00;99.90;;;;;;10525387;28;20043;-63
2021/08/05 22:54:44;;;;;;;7.95;3.67;;;16.90;99.90;;;;;;10519864;28;20032;-63
2021/08/05 22:59:46;;;;;;;7.63;3.95;;;16.90;99.90;;;;;;10525634;28;20407;-63
2021/08/05 23:04:48;;;;;;;8.05;4.32;;;16.80;99.90;;;;;;10521373;28;20075;-63
2021/08/05 23:09:49;;;;;;;9.38;4.35;;;16.70;99.90;;;;;;10525051;28;20105;-63
2021/08/05 23:14:51;;;;;;;9.07;4.55;;;16.60;99.90;;;;;;10505198;28;20487;-63
2021/08/05 23:19:53;;;;;;;10.75;3.92;;;16.60;99.90;;;;;;10521753;28;20076;-63
2021/08/05 23:24:55;;;;;;;6.60;3.05;;;16.50;99.90;;;;;;10531871;28;20094;-63
2021/08/05 23:29:56;;;;;;;4.70;2.85;;;16.50;99.90;;;;;;10536106;28;20519;-62
2021/08/05 23:34:58;;;;;;;6.55;3.28;;;16.40;99.90;;;;;;10529452;28;20156;-63
2021/08/05 23:40:00;;;;;;;3.65;2.05;;;16.40;99.90;;;;;;10532264;28;20044;-63
2021/08/05 23:45:03;;;;;;;4.72;1.58;;;16.30;99.90;;;;;;10531904;28;20114;-62
2021/08/05 23:50:06;;;;;;;1.90;1.10;;;16.20;99.90;;;;;;10530564;28;20108;-63
2021/08/05 23:55:08;;;;;;;3.08;1.42;;;16.20;99.90;;;;;;10527342;28;20044;-63
